• Join FlightAware (Why Join?)
  • Login
  • US Flag 
10:36PM EDT


 

Airport Tracker/Info


-or-


 

Live Flight TrackerFlight Track Log ✈ SKW6345 ✈ 19-Jun-2013 ✈ KLAX - KSAN

Flight Track Log - Related Links

Times and Time Zones

All times are in EDT time to prevent confusion due to time zone crossing. See the SKW6345 flight status page for this flight to view local times or setup timezone preferences in your user account.

Time Position Orientation Groundspeed Altitude Reporting Facility
EDT Latitude Longitude Course Direction KTS MPH feet Rate Location/Type
08:30PM 33.9167 -118.4500 139° Southeast 174 200 2,000  Level Southern California TRACON
08:30PM 33.8833 -118.4667 203° Southwest 207 238 3,400 1,500 Climbing Southern California TRACON
08:32PM 33.8167 -118.4500 168° South 214 246 5,000 1,440 Climbing Southern California TRACON
08:33PM 33.7500 -118.4333 168° South 220 253 6,500 1,440 Climbing Southern California TRACON
08:34PM 33.7000 -118.3833 140° Southeast 227 261 7,900 780 Climbing Southern California TRACON
08:35PM 33.7086 -118.1687 139° Southeast  Level Estimated
08:35PM 33.6500 -118.3333 140° Southeast 260 299 8,100  Level Southern California TRACON
08:35PM 33.6167 -118.2833 129° Southeast 264 304 9,000 420 Climbing Southern California TRACON
08:37PM 33.5667 -118.1833 121° Southeast 281 323 9,000  Level Southern California TRACON
08:38PM 33.5333 -118.1167 121° Southeast 276 318 9,100  Climbing Southern California TRACON
08:39PM 33.4833 -118.0333 126° Southeast 271 312 9,000 -60 Descending Southern California TRACON
08:40PM 33.4500 -117.9667 121° Southeast 270 311 9,000  Level Southern California TRACON
08:41PM 33.4000 -117.8833 126° Southeast 269 310 9,100  Climbing Southern California TRACON
08:41PM 33.3811 -117.8508 125° Southeast 272 313 9,000 -120 Descending Los Angeles Center
08:42PM 33.3397 -117.7778 124° Southeast 269 310 9,000  Level Los Angeles Center
08:43PM 33.2986 -117.7058 124° Southeast 264 304 9,000  Level Los Angeles Center
08:44PM 33.2589 -117.6514 131° Southeast 268 308 9,000  Level Los Angeles Center
08:45PM 33.1733 -117.5828 146° Southeast 262 302 9,000  Level Los Angeles Center
08:46PM 33.1025 -117.5178 142° Southeast 267 307 9,000  Level Los Angeles Center
08:48PM 33.0442 -117.4642 142° Southeast 266 306 9,000 -60 Level Los Angeles Center
08:49PM 32.9742 -117.3994 142° Southeast 266 306 8,900 -660 Descending Los Angeles Center
08:50PM 32.9167 -117.3500 144° Southeast 253 291 7,800 -1,020 Descending Southern California TRACON
08:51PM 32.8667 -117.3000 140° Southeast 248 285 7,000 -480 Descending Southern California TRACON
08:52PM 32.8167 -117.2333 132° Southeast 244 281 6,900 -420 Descending Southern California TRACON
08:53PM 32.7692 -117.1664 130° Southeast 250 288 6,100 -900 Descending Los Angeles Center
08:54PM 32.7500 -117.0833 105° East 258 297 5,100 -600 Descending Southern California TRACON
08:55PM 32.7333 -117.0167 107° East 210 242 5,100  Level Southern California TRACON
08:56PM 32.7167 -116.9500 107° East 212 244 5,100 -60 Level Southern California TRACON
08:57PM 32.6833 -116.9000 128° Southeast 209 241 5,000 -720 Descending Southern California TRACON
08:59PM 32.7000 -117.0167 280° West 196 226 3,100 -1,020 Descending Southern California TRACON
09:00PM 32.7000 -117.0833 270° West 182 209 2,000 -1,080 Descending Southern California TRACON
09:01PM 32.7167 -117.1167 301° West 140 161 1,000 -780 Descending Southern California TRACON
09:02PM 32.7333 -117.1667 292° West 132 152 500 -540 Descending Southern California TRACON
09:02PM 32.7289 -117.1736 233° Southwest 141 162 200 -600 Descending Los Angeles Center